sensor_id;sensor_type;location;lat;lon;timestamp;P1;durP1;ratioP1;P2;durP2;ratioP2
77581;SDS011;66726;52.388;9.986;2024-03-23T00:52:19;14.10;;;9.43;;
77581;SDS011;66726;52.388;9.986;2024-03-23T00:54:47;18.43;;;9.27;;
77581;SDS011;66726;52.388;9.986;2024-03-23T00:57:13;16.10;;;9.43;;
77581;SDS011;66726;52.388;9.986;2024-03-23T00:59:40;16.87;;;10.27;;
77581;SDS011;66726;52.388;9.986;2024-03-23T01:02:07;17.77;;;9.50;;
77581;SDS011;66726;52.388;9.986;2024-03-23T01:04:34;16.37;;;9.37;;
77581;SDS011;66726;52.388;9.986;2024-03-23T01:07:00;20.97;;;10.60;;
77581;SDS011;66726;52.388;9.986;2024-03-23T01:09:28;22.40;;;10.70;;
77581;SDS011;66726;52.388;9.986;2024-03-23T01:12:00;15.97;;;10.00;;
77581;SDS011;66726;52.388;9.986;2024-03-23T01:14:28;18.07;;;10.07;;
77581;SDS011;66726;52.388;9.986;2024-03-23T01:16:54;21.87;;;11.40;;
77581;SDS011;66726;52.388;9.986;2024-03-23T01:19:21;16.07;;;10.20;;
77581;SDS011;66726;52.388;9.986;2024-03-23T01:21:48;20.50;;;10.33;;
77581;SDS011;66726;52.388;9.986;2024-03-23T01:24:15;20.47;;;10.93;;
77581;SDS011;66726;52.388;9.986;2024-03-23T01:26:43;21.83;;;10.43;;
77581;SDS011;66726;52.388;9.986;2024-03-23T01:29:10;20.10;;;10.33;;
77581;SDS011;66726;52.388;9.986;2024-03-23T01:31:36;18.93;;;10.33;;
77581;SDS011;66726;52.388;9.986;2024-03-23T01:34:03;16.90;;;10.23;;
77581;SDS011;66726;52.388;9.986;2024-03-23T01:36:30;20.50;;;10.50;;
77581;SDS011;66726;52.388;9.986;2024-03-23T01:38:57;21.83;;;10.27;;
77581;SDS011;66726;52.388;9.986;2024-03-23T01:41:23;17.97;;;10.30;;
77581;SDS011;66726;52.388;9.986;2024-03-23T01:43:52;20.50;;;10.03;;
77581;SDS011;66726;52.388;9.986;2024-03-23T01:46:20;20.23;;;9.83;;
77581;SDS011;66726;52.388;9.986;2024-03-23T01:48:48;19.33;;;10.47;;
77581;SDS011;66726;52.388;9.986;2024-03-23T01:51:15;20.10;;;9.47;;
77581;SDS011;66726;52.388;9.986;2024-03-23T01:53:43;21.97;;;10.50;;
77581;SDS011;66726;52.388;9.986;2024-03-23T01:56:09;21.97;;;9.83;;
77581;SDS011;66726;52.388;9.986;2024-03-23T01:58:38;18.67;;;9.90;;
77581;SDS011;66726;52.388;9.986;2024-03-23T02:01:06;18.43;;;10.20;;
77581;SDS011;66726;52.388;9.986;2024-03-23T02:03:33;18.20;;;10.23;;
77581;SDS011;66726;52.388;9.986;2024-03-23T02:05:59;23.40;;;9.77;;
77581;SDS011;66726;52.388;9.986;2024-03-23T02:08:26;18.70;;;10.00;;
77581;SDS011;66726;52.388;9.986;2024-03-23T02:10:53;23.67;;;11.17;;
77581;SDS011;66726;52.388;9.986;2024-03-23T02:13:20;23.77;;;10.33;;
77581;SDS011;66726;52.388;9.986;2024-03-23T02:15:47;22.17;;;10.43;;
77581;SDS011;66726;52.388;9.986;2024-03-23T02:18:16;18.83;;;10.20;;
77581;SDS011;66726;52.388;9.986;2024-03-23T02:20:42;20.37;;;10.37;;
77581;SDS011;66726;52.388;9.986;2024-03-23T02:23:14;23.40;;;9.70;;
77581;SDS011;66726;52.388;9.986;2024-03-23T02:25:41;17.07;;;9.67;;
77581;SDS011;66726;52.388;9.986;2024-03-23T02:28:08;15.50;;;9.30;;
77581;SDS011;66726;52.388;9.986;2024-03-23T02:30:35;18.77;;;9.60;;
77581;SDS011;66726;52.388;9.986;2024-03-23T02:33:02;17.70;;;9.37;;
77581;SDS011;66726;52.388;9.986;2024-03-23T02:35:29;21.40;;;9.50;;
77581;SDS011;66726;52.388;9.986;2024-03-23T02:37:56;21.17;;;9.20;;
77581;SDS011;66726;52.388;9.986;2024-03-23T02:40:24;17.97;;;8.23;;
77581;SDS011;66726;52.388;9.986;2024-03-23T02:42:52;20.67;;;8.03;;
77581;SDS011;66726;52.388;9.986;2024-03-23T02:45:18;15.80;;;7.57;;
77581;SDS011;66726;52.388;9.986;2024-03-23T02:47:45;15.50;;;8.63;;
77581;SDS011;66726;52.388;9.986;2024-03-23T02:50:11;18.40;;;7.93;;
77581;SDS011;66726;52.388;9.986;2024-03-23T02:52:40;18.77;;;7.93;;
77581;SDS011;66726;52.388;9.986;2024-03-23T02:55:07;16.37;;;7.50;;
77581;SDS011;66726;52.388;9.986;2024-03-23T02:57:36;17.73;;;7.57;;
77581;SDS011;66726;52.388;9.986;2024-03-23T03:00:02;18.97;;;7.90;;
77581;SDS011;66726;52.388;9.986;2024-03-23T03:02:31;18.60;;;7.40;;
77581;SDS011;66726;52.388;9.986;2024-03-23T03:04:58;15.50;;;7.07;;
77581;SDS011;66726;52.388;9.986;2024-03-23T03:07:25;14.83;;;6.80;;
77581;SDS011;66726;52.388;9.986;2024-03-23T03:09:51;15.13;;;6.60;;
77581;SDS011;66726;52.388;9.986;2024-03-23T03:12:18;13.83;;;6.43;;
77581;SDS011;66726;52.388;9.986;2024-03-23T03:14:46;14.73;;;6.70;;
77581;SDS011;66726;52.388;9.986;2024-03-23T03:17:13;16.60;;;7.27;;
77581;SDS011;66726;52.388;9.986;2024-03-23T03:19:40;20.00;;;7.27;;
77581;SDS011;66726;52.388;9.986;2024-03-23T03:22:07;15.17;;;7.40;;
77581;SDS011;66726;52.388;9.986;2024-03-23T03:24:33;14.63;;;6.97;;
77581;SDS011;66726;52.388;9.986;2024-03-23T03:27:01;15.80;;;6.87;;
77581;SDS011;66726;52.388;9.986;2024-03-23T03:29:28;15.63;;;7.30;;
77581;SDS011;66726;52.388;9.986;2024-03-23T03:32:02;15.73;;;7.27;;
77581;SDS011;66726;52.388;9.986;2024-03-23T03:34:29;16.03;;;6.20;;
77581;SDS011;66726;52.388;9.986;2024-03-23T03:36:56;17.13;;;7.57;;
77581;SDS011;66726;52.388;9.986;2024-03-23T03:39:23;14.23;;;7.30;;
77581;SDS011;66726;52.388;9.986;2024-03-23T03:41:50;17.33;;;7.37;;
77581;SDS011;66726;52.388;9.986;2024-03-23T03:44:17;15.43;;;6.93;;
77581;SDS011;66726;52.388;9.986;2024-03-23T03:46:44;17.57;;;6.70;;
77581;SDS011;66726;52.388;9.986;2024-03-23T03:49:13;14.73;;;7.10;;
77581;SDS011;66726;52.388;9.986;2024-03-23T03:51:40;17.47;;;6.07;;
77581;SDS011;66726;52.388;9.986;2024-03-23T03:54:07;16.13;;;6.63;;
77581;SDS011;66726;52.388;9.986;2024-03-23T03:56:34;17.80;;;6.73;;
77581;SDS011;66726;52.388;9.986;2024-03-23T03:59:00;15.13;;;6.67;;
77581;SDS011;66726;52.388;9.986;2024-03-23T04:01:27;15.97;;;7.00;;
77581;SDS011;66726;52.388;9.986;2024-03-23T04:03:53;14.97;;;6.37;;
77581;SDS011;66726;52.388;9.986;2024-03-23T04:06:22;15.87;;;5.93;;
77581;SDS011;66726;52.388;9.986;2024-03-23T04:08:48;14.80;;;6.80;;
77581;SDS011;66726;52.388;9.986;2024-03-23T04:11:16;13.53;;;6.00;;
77581;SDS011;66726;52.388;9.986;2024-03-23T04:13:42;15.07;;;5.20;;
77581;SDS011;66726;52.388;9.986;2024-03-23T04:16:10;14.03;;;4.73;;
77581;SDS011;66726;52.388;9.986;2024-03-23T04:18:36;10.40;;;4.07;;
77581;SDS011;66726;52.388;9.986;2024-03-23T04:21:03;11.80;;;4.57;;
77581;SDS011;66726;52.388;9.986;2024-03-23T04:23:31;13.97;;;5.30;;
77581;SDS011;66726;52.388;9.986;2024-03-23T04:26:02;14.93;;;4.80;;
77581;SDS011;66726;52.388;9.986;2024-03-23T04:28:30;14.70;;;5.40;;
77581;SDS011;66726;52.388;9.986;2024-03-23T04:30:57;12.80;;;4.07;;
77581;SDS011;66726;52.388;9.986;2024-03-23T04:33:28;12.40;;;4.37;;
77581;SDS011;66726;52.388;9.986;2024-03-23T04:35:55;17.63;;;4.80;;
77581;SDS011;66726;52.388;9.986;2024-03-23T04:38:21;15.00;;;4.50;;
77581;SDS011;66726;52.388;9.986;2024-03-23T04:40:54;12.73;;;4.57;;
77581;SDS011;66726;52.388;9.986;2024-03-23T04:43:22;18.53;;;4.93;;
77581;SDS011;66726;52.388;9.986;2024-03-23T04:45:49;9.40;;;3.70;;
77581;SDS011;66726;52.388;9.986;2024-03-23T04:48:18;16.40;;;3.40;;
77581;SDS011;66726;52.388;9.986;2024-03-23T04:50:47;12.97;;;3.30;;
77581;SDS011;66726;52.388;9.986;2024-03-23T04:53:15;12.67;;;3.50;;
77581;SDS011;66726;52.388;9.986;2024-03-23T04:55:43;11.27;;;3.43;;
77581;SDS011;66726;52.388;9.986;2024-03-23T04:58:12;9.57;;;3.53;;
77581;SDS011;66726;52.388;9.986;2024-03-23T05:00:38;11.17;;;3.40;;
77581;SDS011;66726;52.388;9.986;2024-03-23T05:03:05;14.53;;;3.60;;
77581;SDS011;66726;52.388;9.986;2024-03-23T05:05:31;14.03;;;3.77;;
77581;SDS011;66726;52.388;9.986;2024-03-23T05:07:58;14.47;;;4.03;;
77581;SDS011;66726;52.388;9.986;2024-03-23T05:10:25;11.30;;;3.50;;
77581;SDS011;66726;52.388;9.986;2024-03-23T05:12:52;11.67;;;4.63;;
77581;SDS011;66726;52.388;9.986;2024-03-23T05:15:20;13.63;;;4.23;;
77581;SDS011;66726;52.388;9.986;2024-03-23T05:17:47;14.43;;;4.97;;
77581;SDS011;66726;52.388;9.986;2024-03-23T05:20:13;13.50;;;4.30;;
77581;SDS011;66726;52.388;9.986;2024-03-23T05:22:41;13.13;;;4.63;;
77581;SDS011;66726;52.388;9.986;2024-03-23T05:25:08;16.37;;;4.70;;
77581;SDS011;66726;52.388;9.986;2024-03-23T05:27:35;14.73;;;3.83;;
77581;SDS011;66726;52.388;9.986;2024-03-23T05:30:01;9.87;;;3.57;;
77581;SDS011;66726;52.388;9.986;2024-03-23T05:32:31;15.50;;;6.23;;
77581;SDS011;66726;52.388;9.986;2024-03-23T05:34:57;8.73;;;2.87;;
77581;SDS011;66726;52.388;9.986;2024-03-23T05:37:24;8.40;;;2.70;;
77581;SDS011;66726;52.388;9.986;2024-03-23T05:39:51;8.67;;;2.77;;
77581;SDS011;66726;52.388;9.986;2024-03-23T05:42:18;11.37;;;3.33;;
77581;SDS011;66726;52.388;9.986;2024-03-23T05:44:44;10.50;;;3.20;;
77581;SDS011;66726;52.388;9.986;2024-03-23T05:47:12;9.57;;;2.73;;
77581;SDS011;66726;52.388;9.986;2024-03-23T05:49:41;9.00;;;2.90;;
77581;SDS011;66726;52.388;9.986;2024-03-23T05:52:09;9.40;;;2.70;;
77581;SDS011;66726;52.388;9.986;2024-03-23T05:54:35;8.07;;;2.77;;
77581;SDS011;66726;52.388;9.986;2024-03-23T05:57:02;11.43;;;3.30;;
77581;SDS011;66726;52.388;9.986;2024-03-23T05:59:29;13.33;;;4.77;;
77581;SDS011;66726;52.388;9.986;2024-03-23T06:01:57;14.60;;;4.23;;
77581;SDS011;66726;52.388;9.986;2024-03-23T06:04:23;9.33;;;3.00;;
77581;SDS011;66726;52.388;9.986;2024-03-23T06:06:51;8.03;;;3.33;;
77581;SDS011;66726;52.388;9.986;2024-03-23T06:09:18;10.07;;;3.37;;
77581;SDS011;66726;52.388;9.986;2024-03-23T06:11:45;7.77;;;3.40;;
77581;SDS011;66726;52.388;9.986;2024-03-23T06:14:11;8.97;;;3.27;;
77581;SDS011;66726;52.388;9.986;2024-03-23T06:16:39;7.80;;;3.47;;
77581;SDS011;66726;52.388;9.986;2024-03-23T06:19:05;11.20;;;3.37;;
77581;SDS011;66726;52.388;9.986;2024-03-23T06:21:32;5.63;;;2.10;;
77581;SDS011;66726;52.388;9.986;2024-03-23T06:24:00;11.87;;;2.73;;
77581;SDS011;66726;52.388;9.986;2024-03-23T06:26:27;7.83;;;2.60;;
77581;SDS011;66726;52.388;9.986;2024-03-23T06:28:54;8.77;;;3.40;;
77581;SDS011;66726;52.388;9.986;2024-03-23T06:31:21;10.73;;;3.13;;
77581;SDS011;66726;52.388;9.986;2024-03-23T06:33:47;10.10;;;2.90;;
77581;SDS011;66726;52.388;9.986;2024-03-23T06:36:14;8.50;;;2.43;;
77581;SDS011;66726;52.388;9.986;2024-03-23T06:38:41;9.47;;;2.70;;
77581;SDS011;66726;52.388;9.986;2024-03-23T06:41:09;9.00;;;2.77;;
77581;SDS011;66726;52.388;9.986;2024-03-23T06:43:36;11.90;;;2.80;;
77581;SDS011;66726;52.388;9.986;2024-03-23T06:46:05;12.33;;;2.60;;
77581;SDS011;66726;52.388;9.986;2024-03-23T06:48:31;10.43;;;3.20;;
77581;SDS011;66726;52.388;9.986;2024-03-23T06:50:58;9.37;;;2.53;;
77581;SDS011;66726;52.388;9.986;2024-03-23T06:53:25;7.63;;;2.57;;
77581;SDS011;66726;52.388;9.986;2024-03-23T06:55:52;10.90;;;2.50;;
77581;SDS011;66726;52.388;9.986;2024-03-23T06:58:21;10.30;;;3.03;;
77581;SDS011;66726;52.388;9.986;2024-03-23T07:00:50;9.43;;;2.60;;
77581;SDS011;66726;52.388;9.986;2024-03-23T07:03:16;9.83;;;2.70;;
77581;SDS011;66726;52.388;9.986;2024-03-23T07:05:44;10.83;;;2.80;;
77581;SDS011;66726;52.388;9.986;2024-03-23T07:08:11;8.50;;;2.73;;
77581;SDS011;66726;52.388;9.986;2024-03-23T07:10:44;12.67;;;3.50;;
77581;SDS011;66726;52.388;9.986;2024-03-23T07:13:10;9.30;;;3.07;;
77581;SDS011;66726;52.388;9.986;2024-03-23T07:15:38;10.57;;;2.67;;
77581;SDS011;66726;52.388;9.986;2024-03-23T07:18:05;10.30;;;2.73;;
77581;SDS011;66726;52.388;9.986;2024-03-23T07:20:32;11.13;;;3.00;;
77581;SDS011;66726;52.388;9.986;2024-03-23T07:22:58;9.97;;;3.40;;
77581;SDS011;66726;52.388;9.986;2024-03-23T07:25:26;15.43;;;3.37;;
77581;SDS011;66726;52.388;9.986;2024-03-23T07:27:54;11.03;;;3.60;;
77581;SDS011;66726;52.388;9.986;2024-03-23T07:30:21;13.07;;;3.33;;
77581;SDS011;66726;52.388;9.986;2024-03-23T07:32:49;15.40;;;4.10;;
77581;SDS011;66726;52.388;9.986;2024-03-23T07:35:16;12.50;;;4.20;;
77581;SDS011;66726;52.388;9.986;2024-03-23T07:37:42;13.67;;;4.37;;
77581;SDS011;66726;52.388;9.986;2024-03-23T07:40:10;14.60;;;4.10;;
77581;SDS011;66726;52.388;9.986;2024-03-23T07:42:37;17.67;;;5.23;;
77581;SDS011;66726;52.388;9.986;2024-03-23T07:45:05;18.37;;;4.57;;
77581;SDS011;66726;52.388;9.986;2024-03-23T07:47:32;13.43;;;4.50;;
77581;SDS011;66726;52.388;9.986;2024-03-23T07:50:00;17.10;;;5.23;;
77581;SDS011;66726;52.388;9.986;2024-03-23T07:52:27;14.87;;;4.87;;
77581;SDS011;66726;52.388;9.986;2024-03-23T07:54:55;14.07;;;5.60;;
77581;SDS011;66726;52.388;9.986;2024-03-23T07:57:21;18.30;;;6.17;;
77581;SDS011;66726;52.388;9.986;2024-03-23T07:59:48;19.47;;;6.03;;
77581;SDS011;66726;52.388;9.986;2024-03-23T08:02:15;16.60;;;5.90;;
77581;SDS011;66726;52.388;9.986;2024-03-23T08:04:42;23.20;;;6.80;;
77581;SDS011;66726;52.388;9.986;2024-03-23T08:07:10;22.60;;;7.63;;
77581;SDS011;66726;52.388;9.986;2024-03-23T08:09:37;28.07;;;7.97;;
77581;SDS011;66726;52.388;9.986;2024-03-23T08:12:04;26.57;;;7.23;;
77581;SDS011;66726;52.388;9.986;2024-03-23T08:14:31;19.50;;;7.93;;
77581;SDS011;66726;52.388;9.986;2024-03-23T08:16:58;24.47;;;9.00;;
77581;SDS011;66726;52.388;9.986;2024-03-23T08:19:24;25.83;;;9.77;;
77581;SDS011;66726;52.388;9.986;2024-03-23T08:21:51;24.73;;;8.80;;
77581;SDS011;66726;52.388;9.986;2024-03-23T08:24:21;28.17;;;9.23;;
77581;SDS011;66726;52.388;9.986;2024-03-23T08:26:48;24.60;;;8.50;;
77581;SDS011;66726;52.388;9.986;2024-03-23T08:29:14;30.37;;;10.10;;
77581;SDS011;66726;52.388;9.986;2024-03-23T08:31:41;31.37;;;9.87;;
77581;SDS011;66726;52.388;9.986;2024-03-23T08:34:07;28.43;;;11.40;;
77581;SDS011;66726;52.388;9.986;2024-03-23T08:36:35;28.40;;;10.97;;
77581;SDS011;66726;52.388;9.986;2024-03-23T08:39:01;35.30;;;10.87;;
77581;SDS011;66726;52.388;9.986;2024-03-23T08:41:30;29.67;;;10.97;;
77581;SDS011;66726;52.388;9.986;2024-03-23T08:43:56;35.50;;;11.83;;
77581;SDS011;66726;52.388;9.986;2024-03-23T08:46:23;29.53;;;12.27;;
77581;SDS011;66726;52.388;9.986;2024-03-23T08:48:49;29.43;;;11.33;;
77581;SDS011;66726;52.388;9.986;2024-03-23T08:51:18;29.93;;;12.27;;
77581;SDS011;66726;52.388;9.986;2024-03-23T08:53:45;31.70;;;12.47;;
77581;SDS011;66726;52.388;9.986;2024-03-23T08:56:11;28.63;;;12.40;;
77581;SDS011;66726;52.388;9.986;2024-03-23T08:58:40;28.73;;;10.83;;
77581;SDS011;66726;52.388;9.986;2024-03-23T09:01:07;28.00;;;10.83;;
77581;SDS011;66726;52.388;9.986;2024-03-23T09:03:35;32.97;;;11.87;;
77581;SDS011;66726;52.388;9.986;2024-03-23T09:06:06;24.03;;;10.87;;
77581;SDS011;66726;52.388;9.986;2024-03-23T09:08:33;21.33;;;8.83;;
77581;SDS011;66726;52.388;9.986;2024-03-23T09:11:03;27.40;;;10.00;;
77581;SDS011;66726;52.388;9.986;2024-03-23T09:14:25;27.90;;;9.83;;
77581;SDS011;66726;52.388;9.986;2024-03-23T09:16:52;28.77;;;9.97;;
77581;SDS011;66726;52.388;9.986;2024-03-23T09:21:12;26.20;;;9.07;;
77581;SDS011;66726;52.388;9.986;2024-03-23T09:23:40;22.77;;;8.57;;
77581;SDS011;66726;52.388;9.986;2024-03-23T09:26:09;22.20;;;8.10;;
77581;SDS011;66726;52.388;9.986;2024-03-23T09:28:36;22.30;;;8.20;;
77581;SDS011;66726;52.388;9.986;2024-03-23T09:31:02;24.10;;;7.63;;
77581;SDS011;66726;52.388;9.986;2024-03-23T09:33:30;23.63;;;7.07;;
77581;SDS011;66726;52.388;9.986;2024-03-23T09:36:56;24.17;;;8.47;;
77581;SDS011;66726;52.388;9.986;2024-03-23T09:39:23;20.07;;;7.00;;
77581;SDS011;66726;52.388;9.986;2024-03-23T09:41:50;21.77;;;7.73;;
77581;SDS011;66726;52.388;9.986;2024-03-23T09:44:17;24.33;;;7.30;;
77581;SDS011;66726;52.388;9.986;2024-03-23T09:46:44;20.20;;;7.00;;
77581;SDS011;66726;52.388;9.986;2024-03-23T09:49:10;21.13;;;7.30;;
77581;SDS011;66726;52.388;9.986;2024-03-23T09:51:38;16.13;;;6.80;;
77581;SDS011;66726;52.388;9.986;2024-03-23T09:54:05;21.83;;;6.23;;
77581;SDS011;66726;52.388;9.986;2024-03-23T09:56:33;20.60;;;6.57;;
77581;SDS011;66726;52.388;9.986;2024-03-23T09:59:00;20.13;;;6.13;;
77581;SDS011;66726;52.388;9.986;2024-03-23T10:01:29;15.00;;;4.53;;
77581;SDS011;66726;52.388;9.986;2024-03-23T10:03:56;14.33;;;4.90;;
77581;SDS011;66726;52.388;9.986;2024-03-23T10:06:23;14.47;;;5.17;;
77581;SDS011;66726;52.388;9.986;2024-03-23T10:08:50;12.20;;;4.67;;
77581;SDS011;66726;52.388;9.986;2024-03-23T10:11:20;20.27;;;6.03;;
77581;SDS011;66726;52.388;9.986;2024-03-23T10:13:47;14.73;;;5.70;;
77581;SDS011;66726;52.388;9.986;2024-03-23T10:16:21;16.20;;;6.27;;
77581;SDS011;66726;52.388;9.986;2024-03-23T10:18:48;21.43;;;6.10;;
77581;SDS011;66726;52.388;9.986;2024-03-23T10:21:16;17.53;;;5.60;;
77581;SDS011;66726;52.388;9.986;2024-03-23T10:23:44;23.10;;;6.50;;
77581;SDS011;66726;52.388;9.986;2024-03-23T10:26:18;20.20;;;6.63;;
77581;SDS011;66726;52.388;9.986;2024-03-23T10:28:54;14.63;;;5.23;;
77581;SDS011;66726;52.388;9.986;2024-03-23T10:31:26;12.23;;;4.10;;
77581;SDS011;66726;52.388;9.986;2024-03-23T10:33:52;11.70;;;4.47;;
77581;SDS011;66726;52.388;9.986;2024-03-23T10:36:21;17.97;;;3.93;;
77581;SDS011;66726;52.388;9.986;2024-03-23T10:38:49;17.00;;;4.23;;
77581;SDS011;66726;52.388;9.986;2024-03-23T10:41:17;13.90;;;4.53;;
77581;SDS011;66726;52.388;9.986;2024-03-23T10:43:46;16.13;;;4.17;;
77581;SDS011;66726;52.388;9.986;2024-03-23T10:46:15;13.30;;;3.47;;
77581;SDS011;66726;52.388;9.986;2024-03-23T10:48:41;11.63;;;3.10;;
77581;SDS011;66726;52.388;9.986;2024-03-23T10:51:10;6.93;;;3.07;;
77581;SDS011;66726;52.388;9.986;2024-03-23T10:53:39;9.97;;;3.10;;
77581;SDS011;66726;52.388;9.986;2024-03-23T10:56:07;12.13;;;3.23;;
77581;SDS011;66726;52.388;9.986;2024-03-23T10:58:37;9.40;;;3.43;;
77581;SDS011;66726;52.388;9.986;2024-03-23T11:01:11;8.50;;;3.17;;
77581;SDS011;66726;52.388;9.986;2024-03-23T11:03:38;12.83;;;3.80;;
77581;SDS011;66726;52.388;9.986;2024-03-23T11:06:33;9.53;;;3.43;;
77581;SDS011;66726;52.388;9.986;2024-03-23T11:12:13;8.77;;;2.90;;
77581;SDS011;66726;52.388;9.986;2024-03-23T11:14:52;4.30;;;2.37;;
77581;SDS011;66726;52.388;9.986;2024-03-23T11:17:24;4.33;;;2.47;;
77581;SDS011;66726;52.388;9.986;2024-03-23T11:19:56;5.27;;;2.70;;
77581;SDS011;66726;52.388;9.986;2024-03-23T11:22:44;4.77;;;2.70;;
77581;SDS011;66726;52.388;9.986;2024-03-23T11:25:14;8.17;;;2.87;;
77581;SDS011;66726;52.388;9.986;2024-03-23T11:27:43;7.10;;;2.60;;
77581;SDS011;66726;52.388;9.986;2024-03-23T11:30:15;3.40;;;2.10;;
77581;SDS011;66726;52.388;9.986;2024-03-23T11:32:44;4.47;;;2.20;;
77581;SDS011;66726;52.388;9.986;2024-03-23T11:35:25;4.80;;;2.30;;
77581;SDS011;66726;52.388;9.986;2024-03-23T11:38:04;3.63;;;2.40;;
77581;SDS011;66726;52.388;9.986;2024-03-23T11:40:36;5.60;;;2.87;;
77581;SDS011;66726;52.388;9.986;2024-03-23T11:43:04;3.73;;;2.07;;
77581;SDS011;66726;52.388;9.986;2024-03-23T11:45:34;3.17;;;2.33;;
77581;SDS011;66726;52.388;9.986;2024-03-23T11:48:05;4.93;;;2.50;;
77581;SDS011;66726;52.388;9.986;2024-03-23T11:50:39;3.60;;;2.63;;
77581;SDS011;66726;52.388;9.986;2024-03-23T11:53:08;9.40;;;3.53;;
77581;SDS011;66726;52.388;9.986;2024-03-23T11:55:42;5.90;;;2.93;;
77581;SDS011;66726;52.388;9.986;2024-03-23T11:58:14;7.03;;;3.30;;
77581;SDS011;66726;52.388;9.986;2024-03-23T12:00:43;6.30;;;2.90;;
77581;SDS011;66726;52.388;9.986;2024-03-23T12:03:16;9.30;;;3.20;;
77581;SDS011;66726;52.388;9.986;2024-03-23T12:05:47;7.53;;;3.10;;
77581;SDS011;66726;52.388;9.986;2024-03-23T12:08:17;5.60;;;2.57;;
77581;SDS011;66726;52.388;9.986;2024-03-23T12:10:49;4.17;;;2.50;;
77581;SDS011;66726;52.388;9.986;2024-03-23T12:13:18;4.53;;;2.50;;
77581;SDS011;66726;52.388;9.986;2024-03-23T12:15:49;3.93;;;2.07;;
77581;SDS011;66726;52.388;9.986;2024-03-23T12:18:16;4.03;;;2.40;;
77581;SDS011;66726;52.388;9.986;2024-03-23T12:20:44;4.80;;;2.30;;
77581;SDS011;66726;52.388;9.986;2024-03-23T12:23:10;4.60;;;2.07;;
77581;SDS011;66726;52.388;9.986;2024-03-23T12:25:40;4.63;;;2.00;;
77581;SDS011;66726;52.388;9.986;2024-03-23T12:28:07;3.37;;;2.10;;
77581;SDS011;66726;52.388;9.986;2024-03-23T12:30:35;2.83;;;1.87;;
77581;SDS011;66726;52.388;9.986;2024-03-23T12:33:04;2.87;;;1.70;;
77581;SDS011;66726;52.388;9.986;2024-03-23T12:35:32;4.13;;;2.00;;
77581;SDS011;66726;52.388;9.986;2024-03-23T12:37:58;5.60;;;2.70;;
77581;SDS011;66726;52.388;9.986;2024-03-23T12:40:26;4.80;;;2.30;;
77581;SDS011;66726;52.388;9.986;2024-03-23T12:42:54;4.07;;;2.33;;
77581;SDS011;66726;52.388;9.986;2024-03-23T12:45:22;4.87;;;2.40;;
77581;SDS011;66726;52.388;9.986;2024-03-23T12:47:48;5.07;;;2.60;;
77581;SDS011;66726;52.388;9.986;2024-03-23T12:50:17;8.30;;;2.93;;
77581;SDS011;66726;52.388;9.986;2024-03-23T12:52:44;4.33;;;2.70;;
77581;SDS011;66726;52.388;9.986;2024-03-23T12:55:11;4.10;;;3.03;;
77581;SDS011;66726;52.388;9.986;2024-03-23T12:57:37;5.63;;;3.00;;
77581;SDS011;66726;52.388;9.986;2024-03-23T13:00:07;10.17;;;3.50;;
77581;SDS011;66726;52.388;9.986;2024-03-23T13:02:36;4.87;;;3.10;;
77581;SDS011;66726;52.388;9.986;2024-03-23T13:05:05;5.83;;;2.90;;
77581;SDS011;66726;52.388;9.986;2024-03-23T13:07:33;8.83;;;3.40;;
77581;SDS011;66726;52.388;9.986;2024-03-23T13:10:02;8.90;;;3.43;;
77581;SDS011;66726;52.388;9.986;2024-03-23T13:12:30;7.93;;;3.30;;
77581;SDS011;66726;52.388;9.986;2024-03-23T13:14:58;5.50;;;3.13;;
77581;SDS011;66726;52.388;9.986;2024-03-23T13:17:26;6.53;;;2.67;;
77581;SDS011;66726;52.388;9.986;2024-03-23T13:19:53;4.20;;;1.70;;
77581;SDS011;66726;52.388;9.986;2024-03-23T13:22:20;5.30;;;2.50;;
77581;SDS011;66726;52.388;9.986;2024-03-23T13:24:48;4.47;;;2.10;;
77581;SDS011;66726;52.388;9.986;2024-03-23T13:27:14;2.57;;;1.80;;
77581;SDS011;66726;52.388;9.986;2024-03-23T13:29:41;3.93;;;1.80;;
77581;SDS011;66726;52.388;9.986;2024-03-23T13:32:07;3.33;;;1.80;;
77581;SDS011;66726;52.388;9.986;2024-03-23T13:34:36;4.17;;;1.77;;
77581;SDS011;66726;52.388;9.986;2024-03-23T13:37:02;3.80;;;1.43;;
77581;SDS011;66726;52.388;9.986;2024-03-23T13:39:32;3.60;;;1.83;;
77581;SDS011;66726;52.388;9.986;2024-03-23T13:41:58;4.70;;;1.60;;
77581;SDS011;66726;52.388;9.986;2024-03-23T13:44:26;3.37;;;2.10;;
77581;SDS011;66726;52.388;9.986;2024-03-23T13:46:53;3.67;;;1.93;;
77581;SDS011;66726;52.388;9.986;2024-03-23T13:49:26;5.67;;;2.43;;
77581;SDS011;66726;52.388;9.986;2024-03-23T13:51:57;4.97;;;2.10;;
77581;SDS011;66726;52.388;9.986;2024-03-23T13:54:23;3.70;;;2.23;;
77581;SDS011;66726;52.388;9.986;2024-03-23T13:56:51;5.93;;;2.40;;
77581;SDS011;66726;52.388;9.986;2024-03-23T13:59:19;2.80;;;1.93;;
77581;SDS011;66726;52.388;9.986;2024-03-23T14:01:48;4.57;;;2.13;;
77581;SDS011;66726;52.388;9.986;2024-03-23T14:04:15;4.50;;;2.10;;
77581;SDS011;66726;52.388;9.986;2024-03-23T14:06:44;6.10;;;2.47;;
77581;SDS011;66726;52.388;9.986;2024-03-23T14:09:12;5.67;;;2.33;;
77581;SDS011;66726;52.388;9.986;2024-03-23T14:11:45;4.70;;;2.27;;
77581;SDS011;66726;52.388;9.986;2024-03-23T14:14:12;6.67;;;2.33;;
77581;SDS011;66726;52.388;9.986;2024-03-23T14:16:42;5.57;;;2.57;;
77581;SDS011;66726;52.388;9.986;2024-03-23T14:19:08;4.73;;;2.40;;
77581;SDS011;66726;52.388;9.986;2024-03-23T14:21:35;2.63;;;1.93;;
77581;SDS011;66726;52.388;9.986;2024-03-23T14:24:02;6.50;;;2.40;;
77581;SDS011;66726;52.388;9.986;2024-03-23T14:26:31;5.17;;;2.33;;
77581;SDS011;66726;52.388;9.986;2024-03-23T14:28:58;7.53;;;2.17;;
77581;SDS011;66726;52.388;9.986;2024-03-23T14:31:26;6.10;;;2.83;;
77581;SDS011;66726;52.388;9.986;2024-03-23T14:33:52;4.73;;;2.20;;
77581;SDS011;66726;52.388;9.986;2024-03-23T14:36:19;6.47;;;2.07;;
77581;SDS011;66726;52.388;9.986;2024-03-23T14:38:47;5.03;;;2.53;;
77581;SDS011;66726;52.388;9.986;2024-03-23T14:41:14;6.60;;;3.13;;
77581;SDS011;66726;52.388;9.986;2024-03-23T14:43:42;5.90;;;2.00;;
77581;SDS011;66726;52.388;9.986;2024-03-23T14:46:12;5.93;;;2.50;;
77581;SDS011;66726;52.388;9.986;2024-03-23T14:48:40;5.57;;;2.50;;
77581;SDS011;66726;52.388;9.986;2024-03-23T14:51:08;4.23;;;2.33;;
77581;SDS011;66726;52.388;9.986;2024-03-23T14:53:35;5.00;;;2.63;;
77581;SDS011;66726;52.388;9.986;2024-03-23T14:56:05;4.03;;;2.00;;
77581;SDS011;66726;52.388;9.986;2024-03-23T14:58:32;4.53;;;2.03;;
77581;SDS011;66726;52.388;9.986;2024-03-23T15:01:02;2.43;;;1.80;;
77581;SDS011;66726;52.388;9.986;2024-03-23T15:03:29;3.13;;;1.40;;
77581;SDS011;66726;52.388;9.986;2024-03-23T15:05:58;2.63;;;1.40;;
77581;SDS011;66726;52.388;9.986;2024-03-23T15:08:25;1.47;;;1.27;;
77581;SDS011;66726;52.388;9.986;2024-03-23T15:10:54;5.50;;;1.60;;
77581;SDS011;66726;52.388;9.986;2024-03-23T15:13:24;3.53;;;1.43;;
77581;SDS011;66726;52.388;9.986;2024-03-23T15:15:51;6.27;;;1.50;;
77581;SDS011;66726;52.388;9.986;2024-03-23T15:18:19;3.00;;;1.90;;
77581;SDS011;66726;52.388;9.986;2024-03-23T15:20:54;4.20;;;1.90;;
77581;SDS011;66726;52.388;9.986;2024-03-23T15:23:21;2.13;;;1.40;;
77581;SDS011;66726;52.388;9.986;2024-03-23T15:25:53;1.67;;;1.40;;
77581;SDS011;66726;52.388;9.986;2024-03-23T15:28:20;2.27;;;1.60;;
77581;SDS011;66726;52.388;9.986;2024-03-23T15:30:47;3.20;;;1.30;;
77581;SDS011;66726;52.388;9.986;2024-03-23T15:33:14;2.37;;;1.40;;
77581;SDS011;66726;52.388;9.986;2024-03-23T15:35:42;2.47;;;1.47;;
77581;SDS011;66726;52.388;9.986;2024-03-23T15:38:08;4.60;;;2.40;;
77581;SDS011;66726;52.388;9.986;2024-03-23T15:40:36;2.77;;;1.57;;